Time;durP1;ratioP1;P1;durP2;ratioP2;P2;SDS_P1;SDS_P2;PMS_P1;PMS_P2;Temp;Humidity;BMP_temperature;BMP_pressure;BME280_temperature;BME280_humidity;BME280_pressure;Samples;Min_cycle;Max_cycle;Signal;HPM_P1;HPM_P2
2022/04/01 00:02:20;;;;;;;16.45;15.10;;;;;;;;;;5095835;28;20039;-70
2022/04/01 00:04:46;;;;;;;5.38;5.10;;;;;;;;;;5095304;28;20157;-71
2022/04/01 00:07:12;;;;;;;29.08;26.42;;;;;;;;;;5095124;28;20043;-70
2022/04/01 00:09:37;;;;;;;32.28;29.65;;;;;;;;;;5095267;28;20024;-70
2022/04/01 00:12:06;;;;;;;38.08;34.75;;;;;;;;;;5076964;28;20043;-70
2022/04/01 00:14:31;;;;;;;70.75;49.92;;;;;;;;;;5095465;28;20020;-70
2022/04/01 00:16:57;;;;;;;189.10;108.55;;;;;;;;;;5095673;28;20379;-70
2022/04/01 00:19:23;;;;;;;69.72;35.28;;;;;;;;;;5095440;28;20036;-70
2022/04/01 00:21:48;;;;;;;141.48;71.57;;;;;;;;;;5076694;28;20036;-69
2022/04/01 00:24:14;;;;;;;116.68;51.95;;;;;;;;;;5094968;28;20020;-69
2022/04/01 00:26:40;;;;;;;119.72;62.33;;;;;;;;;;5094675;28;20505;-70
2022/04/01 00:29:14;;;;;;;251.57;123.40;;;;;;;;;;5094829;28;20035;-69
2022/04/01 00:31:58;;;;;;;80.72;55.63;;;;;;;;;;5095064;28;20048;-69
2022/04/01 00:34:24;;;;;;;69.90;47.22;;;;;;;;;;5095383;28;20051;-69
2022/04/01 00:36:50;;;;;;;26.02;22.63;;;;;;;;;;5095467;28;20032;-69
2022/04/01 00:39:16;;;;;;;13.82;12.43;;;;;;;;;;5094774;28;20043;-69
2022/04/01 00:41:45;;;;;;;6.20;5.78;;;;;;;;;;5094266;28;20111;-69
2022/04/01 00:44:15;;;;;;;26.42;23.60;;;;;;;;;;5076502;28;20124;-69
2022/04/01 00:46:44;;;;;;;3.33;3.13;;;;;;;;;;5094342;28;20056;-69
2022/04/01 00:49:09;;;;;;;13.73;12.73;;;;;;;;;;5076922;28;20367;-70
2022/04/01 00:51:37;;;;;;;3.55;3.38;;;;;;;;;;5094197;28;20042;-70
2022/04/01 00:54:03;;;;;;;11.85;10.90;;;;;;;;;;5094762;28;20032;-69
2022/04/01 00:56:30;;;;;;;5.68;5.22;;;;;;;;;;5076147;28;20028;-69
2022/04/01 00:58:56;;;;;;;8.80;7.97;;;;;;;;;;5094144;28;20047;-69
2022/04/01 01:01:21;;;;;;;9.30;8.55;;;;;;;;;;5094224;28;20456;-69
2022/04/01 01:03:47;;;;;;;5.00;4.65;;;;;;;;;;5075997;28;20067;-69
2022/04/01 01:06:12;;;;;;;3.40;3.20;;;;;;;;;;5075849;28;20051;-70
2022/04/01 01:08:40;;;;;;;9.98;9.10;;;;;;;;;;5094421;28;20032;-69
2022/04/01 01:11:06;;;;;;;6.45;5.95;;;;;;;;;;5094066;28;20031;-69
2022/04/01 01:13:32;;;;;;;8.23;7.53;;;;;;;;;;5075630;28;20036;-71
2022/04/01 01:15:57;;;;;;;18.42;16.40;;;;;;;;;;5093947;28;20032;-70
2022/04/01 01:18:23;;;;;;;3.08;2.92;;;;;;;;;;5093793;28;20517;-70
2022/04/01 01:20:48;;;;;;;15.73;14.05;;;;;;;;;;5093861;28;20409;-70
2022/04/01 01:23:14;;;;;;;10.40;9.45;;;;;;;;;;5093657;28;20036;-70
2022/04/01 01:25:40;;;;;;;2.67;2.58;;;;;;;;;;5075379;28;20039;-70
2022/04/01 01:28:06;;;;;;;10.20;9.40;;;;;;;;;;5058615;28;20390;-69
2022/04/01 01:30:32;;;;;;;15.25;13.70;;;;;;;;;;5075600;28;20031;-70
2022/04/01 01:32:58;;;;;;;4.85;4.55;;;;;;;;;;5093513;28;20111;-70
2022/04/01 01:35:23;;;;;;;13.50;12.07;;;;;;;;;;5093462;28;20471;-71
2022/04/01 01:37:49;;;;;;;7.43;6.78;;;;;;;;;;5075896;28;20131;-70
2022/04/01 01:40:14;;;;;;;3.70;3.40;;;;;;;;;;5094215;28;20111;-69
2022/04/01 01:42:40;;;;;;;4.18;3.88;;;;;;;;;;5063871;28;20102;-69
2022/04/01 01:45:06;;;;;;;3.20;3.10;;;;;;;;;;5055075;28;20136;-69
2022/04/01 01:47:32;;;;;;;3.10;3.00;;;;;;;;;;5072823;28;20054;-69
2022/04/01 01:55:29;;;;;;;2.33;2.22;;;;;;;;;;5055614;28;20035;-61
2022/04/01 01:57:56;;;;;;;3.05;2.85;;;;;;;;;;5055509;28;20036;-61
2022/04/01 02:00:22;;;;;;;3.58;3.38;;;;;;;;;;5055309;28;20044;-61
2022/04/01 02:02:50;;;;;;;2.53;2.42;;;;;;;;;;5054700;28;20363;-61
2022/04/01 02:05:16;;;;;;;2.72;2.63;;;;;;;;;;5072789;28;20033;-62
2022/04/01 02:07:47;;;;;;;2.70;2.60;;;;;;;;;;5054687;28;20111;-62
2022/04/01 02:10:17;;;;;;;2.80;2.70;;;;;;;;;;5054980;28;20383;-62
2022/04/01 02:12:44;;;;;;;2.75;2.65;;;;;;;;;;5055095;28;20039;-69
2022/04/01 02:15:12;;;;;;;2.60;2.50;;;;;;;;;;5072824;28;20040;-69
2022/04/01 02:17:41;;;;;;;6.25;5.75;;;;;;;;;;5054627;28;20025;-62
2022/04/01 02:20:09;;;;;;;20.05;16.98;;;;;;;;;;5054560;28;20037;-62
2022/04/01 02:22:35;;;;;;;123.68;75.25;;;;;;;;;;5054545;28;20477;-62
2022/04/01 02:25:03;;;;;;;45.17;33.08;;;;;;;;;;5054156;28;20041;-62
2022/04/01 02:27:29;;;;;;;27.65;24.77;;;;;;;;;;5054808;28;20036;-62
2022/04/01 02:29:54;;;;;;;9.10;8.55;;;;;;;;;;5054966;28;20037;-62
2022/04/01 02:32:41;;;;;;;21.58;19.63;;;;;;;;;;5073414;28;20032;-62
2022/04/01 02:35:21;;;;;;;23.73;21.58;;;;;;;;;;5055081;28;20060;-62
2022/04/01 02:37:47;;;;;;;24.40;22.30;;;;;;;;;;5054629;28;20090;-62
2022/04/01 02:40:14;;;;;;;22.77;20.77;;;;;;;;;;5072286;28;20486;-62
2022/04/01 02:42:41;;;;;;;26.90;14.02;;;;;;;;;;5053856;28;20131;-62
2022/04/01 02:45:09;;;;;;;19.35;9.50;;;;;;;;;;5054202;28;20433;-62
2022/04/01 02:47:35;;;;;;;35.38;15.50;;;;;;;;;;5054241;28;20098;-63
2022/04/01 02:50:01;;;;;;;13.15;7.45;;;;;;;;;;5054991;28;20028;-63
2022/04/01 02:52:28;;;;;;;20.30;10.90;;;;;;;;;;5054838;28;20029;-62
2022/04/01 02:54:55;;;;;;;15.85;7.90;;;;;;;;;;5072409;28;20033;-62
2022/04/01 02:57:21;;;;;;;13.43;8.52;;;;;;;;;;5054287;28;20111;-62
2022/04/01 02:59:47;;;;;;;12.00;7.57;;;;;;;;;;5054002;28;20170;-62
2022/04/01 03:02:14;;;;;;;10.45;7.10;;;;;;;;;;5054370;28;20040;-63
2022/04/01 03:04:40;;;;;;;13.52;9.07;;;;;;;;;;5072531;28;20122;-63
2022/04/01 03:07:06;;;;;;;12.18;8.43;;;;;;;;;;5054571;28;20206;-63
2022/04/01 03:09:33;;;;;;;6.35;5.75;;;;;;;;;;5038155;28;20450;-62
2022/04/01 03:12:12;;;;;;;7.38;6.55;;;;;;;;;;5054718;28;20033;-61
2022/04/01 03:14:49;;;;;;;3.50;3.30;;;;;;;;;;5072793;28;20036;-61
2022/04/01 03:17:33;;;;;;;7.35;5.97;;;;;;;;;;5074729;28;20101;-61
2022/04/01 03:20:03;;;;;;;3.83;3.63;;;;;;;;;;5058612;28;20499;-61
2022/04/01 03:22:34;;;;;;;7.63;6.90;;;;;;;;;;5058401;28;20098;-62
2022/04/01 03:25:00;;;;;;;7.63;6.82;;;;;;;;;;5041667;28;20139;-61
2022/04/01 03:27:28;;;;;;;5.47;5.05;;;;;;;;;;5058283;28;20029;-62
2022/04/01 03:29:54;;;;;;;8.15;7.35;;;;;;;;;;5058492;28;20115;-62
2022/04/01 03:32:20;;;;;;;7.22;6.60;;;;;;;;;;5058270;28;20036;-61
2022/04/01 03:34:47;;;;;;;6.25;5.75;;;;;;;;;;5058191;28;20032;-62
2022/04/01 03:37:13;;;;;;;4.93;4.57;;;;;;;;;;5047511;28;20396;-62
2022/04/01 03:39:41;;;;;;;4.60;4.30;;;;;;;;;;5058595;28;20374;-69
2022/04/01 03:42:06;;;;;;;2.70;2.60;;;;;;;;;;5057601;28;20040;-69
2022/04/01 03:44:36;;;;;;;3.78;3.58;;;;;;;;;;5058750;28;20040;-68
2022/04/01 03:47:40;;;;;;;3.05;2.95;;;;;;;;;;5075645;28;20102;-68
2022/04/01 03:50:08;;;;;;;4.72;4.43;;;;;;;;;;5076171;28;20064;-62
2022/04/01 03:52:33;;;;;;;3.67;3.47;;;;;;;;;;5055268;28;20027;-62
2022/04/01 03:55:03;;;;;;;3.30;3.10;;;;;;;;;;5057996;28;20422;-62
2022/04/01 03:58:01;;;;;;;3.10;2.95;;;;;;;;;;5076268;28;20021;-62
2022/04/01 04:00:50;;;;;;;3.85;3.65;;;;;;;;;;5034644;28;20401;-61
2022/04/01 04:03:18;;;;;;;4.20;4.00;;;;;;;;;;5041074;28;20131;-62
2022/04/01 04:05:46;;;;;;;4.40;4.10;;;;;;;;;;5075554;28;20089;-62
2022/04/01 04:08:12;;;;;;;3.30;3.10;;;;;;;;;;5075854;28;20386;-62
2022/04/01 04:10:38;;;;;;;2.75;2.65;;;;;;;;;;5058147;28;20021;-62
2022/04/01 04:13:20;;;;;;;3.17;3.00;;;;;;;;;;5058254;28;20128;-62
2022/04/01 04:15:58;;;;;;;4.05;3.85;;;;;;;;;;5058407;28;20033;-62
2022/04/01 04:18:29;;;;;;;3.50;3.30;;;;;;;;;;5058193;28;20025;-62
2022/04/01 04:21:13;;;;;;;4.03;3.80;;;;;;;;;;5057976;28;20033;-62
2022/04/01 04:23:46;;;;;;;3.40;3.20;;;;;;;;;;5075864;28;20036;-62
2022/04/01 04:26:15;;;;;;;2.58;2.47;;;;;;;;;;5056887;28;20459;-62
2022/04/01 04:28:51;;;;;;;2.50;2.40;;;;;;;;;;5056854;28;20367;-62
2022/04/01 04:31:48;;;;;;;2.67;2.58;;;;;;;;;;5062536;28;20481;-61
2022/04/01 04:34:14;;;;;;;8.18;7.38;;;;;;;;;;5057662;28;20062;-61
2022/04/01 04:36:41;;;;;;;11.25;9.30;;;;;;;;;;5057520;28;20032;-62
2022/04/01 04:39:12;;;;;;;7.35;6.68;;;;;;;;;;5057429;28;20090;-62
2022/04/01 04:41:39;;;;;;;3.10;2.97;;;;;;;;;;5057226;28;20039;-62
2022/04/01 04:44:09;;;;;;;5.20;4.90;;;;;;;;;;5057410;28;20067;-62
2022/04/01 04:46:35;;;;;;;3.60;3.40;;;;;;;;;;5057071;28;20036;-62
2022/04/01 04:49:01;;;;;;;4.88;4.57;;;;;;;;;;5057206;28;20493;-63
2022/04/01 04:51:28;;;;;;;3.50;3.20;;;;;;;;;;5057204;28;20046;-62
2022/04/01 04:54:15;;;;;;;4.03;3.72;;;;;;;;;;5057746;28;20387;-62
2022/04/01 04:56:59;;;;;;;2.67;2.58;;;;;;;;;;5057155;28;20091;-62
2022/04/01 04:59:25;;;;;;;2.40;2.30;;;;;;;;;;5056899;28;20068;-61
2022/04/01 05:02:05;;;;;;;3.53;3.25;;;;;;;;;;5056983;28;20466;-62
2022/04/01 05:04:40;;;;;;;3.22;3.03;;;;;;;;;;5056981;28;20486;-62
2022/04/01 05:07:09;;;;;;;5.97;5.13;;;;;;;;;;5056819;28;20059;-62
2022/04/01 05:10:08;;;;;;;3.88;3.63;;;;;;;;;;5074447;28;20024;-62
2022/04/01 05:12:36;;;;;;;3.83;3.58;;;;;;;;;;5056778;28;20032;-62
2022/04/01 05:15:26;;;;;;;2.53;2.42;;;;;;;;;;5042859;28;20110;-61
2022/04/01 05:18:01;;;;;;;2.88;2.67;;;;;;;;;;5056600;28;20052;-61
2022/04/01 05:20:28;;;;;;;3.10;3.00;;;;;;;;;;5056588;28;20043;-61
2022/04/01 05:23:12;;;;;;;3.50;3.30;;;;;;;;;;5056584;28;20089;-62
2022/04/01 05:25:42;;;;;;;2.40;2.30;;;;;;;;;;5056476;28;20490;-61
2022/04/01 05:28:38;;;;;;;4.22;3.92;;;;;;;;;;5074312;28;20041;-62
2022/04/01 05:31:18;;;;;;;2.33;2.22;;;;;;;;;;5056407;28;20032;-62
2022/04/01 05:33:56;;;;;;;9.73;7.32;;;;;;;;;;5056418;28;20029;-62
2022/04/01 05:36:23;;;;;;;2.80;2.60;;;;;;;;;;5056411;28;20086;-62
2022/04/01 05:38:49;;;;;;;3.42;3.22;;;;;;;;;;5055979;28;20039;-62
2022/04/01 05:41:19;;;;;;;3.78;3.50;;;;;;;;;;5056335;28;20040;-61
2022/04/01 05:43:48;;;;;;;6.47;5.03;;;;;;;;;;5072132;28;20072;-62
2022/04/01 05:46:24;;;;;;;12.27;11.00;;;;;;;;;;5072780;28;20040;-62
2022/04/01 05:48:54;;;;;;;13.18;10.90;;;;;;;;;;5072751;28;20048;-61
2022/04/01 05:51:20;;;;;;;67.35;43.25;;;;;;;;;;5072642;28;20041;-61
2022/04/01 05:53:50;;;;;;;29.45;23.10;;;;;;;;;;5072672;28;20024;-62
2022/04/01 05:56:16;;;;;;;24.95;20.40;;;;;;;;;;5072592;28;20047;-62
2022/04/01 05:58:42;;;;;;;23.27;17.42;;;;;;;;;;5072358;28;20029;-62
2022/04/01 06:01:08;;;;;;;15.35;13.88;;;;;;;;;;5072611;28;20102;-62
2022/04/01 06:03:53;;;;;;;23.38;18.50;;;;;;;;;;5072504;28;20125;-62
2022/04/01 06:06:21;;;;;;;16.98;13.38;;;;;;;;;;5072341;28;20145;-62
2022/04/01 06:08:56;;;;;;;25.50;17.00;;;;;;;;;;5072349;28;20564;-62
2022/04/01 06:11:59;;;;;;;36.55;18.13;;;;;;;;;;5073994;28;20040;-62
2022/04/01 06:14:54;;;;;;;17.17;15.02;;;;;;;;;;5022148;28;20465;-62
2022/04/01 06:17:42;;;;;;;20.23;17.60;;;;;;;;;;5073210;28;20035;-61
2022/04/01 06:20:08;;;;;;;13.90;12.40;;;;;;;;;;5072369;28;20042;-62
2022/04/01 06:22:41;;;;;;;19.42;17.48;;;;;;;;;;5072341;28;20032;-62
2022/04/01 06:25:12;;;;;;;12.43;11.27;;;;;;;;;;5072226;28;20035;-62
2022/04/01 06:27:45;;;;;;;13.07;11.88;;;;;;;;;;5072032;28;20040;-62
2022/04/01 06:30:18;;;;;;;5.10;4.80;;;;;;;;;;5072016;28;20032;-62
2022/04/01 06:32:56;;;;;;;10.43;9.50;;;;;;;;;;5071986;28;20518;-62
2022/04/01 06:35:45;;;;;;;6.80;6.20;;;;;;;;;;5053385;28;20043;-62
2022/04/01 06:38:37;;;;;;;9.95;8.90;;;;;;;;;;5072044;28;20100;-62
2022/04/01 06:41:07;;;;;;;7.22;6.65;;;;;;;;;;5055395;28;20452;-62
2022/04/01 06:43:43;;;;;;;5.07;4.78;;;;;;;;;;5071810;28;20136;-63
2022/04/01 06:46:48;;;;;;;19.40;15.82;;;;;;;;;;5072820;28;20398;-62
2022/04/01 06:49:15;;;;;;;22.77;14.88;;;;;;;;;;5071519;28;20033;-62
2022/04/01 06:51:46;;;;;;;6.07;5.68;;;;;;;;;;5072889;28;20490;-62
2022/04/01 06:54:30;;;;;;;3.90;3.70;;;;;;;;;;5073102;28;20055;-62
2022/04/01 06:57:14;;;;;;;6.85;6.18;;;;;;;;;;5073631;28;20094;-62
2022/04/01 07:00:12;;;;;;;14.02;10.45;;;;;;;;;;5064742;28;20245;-62
2022/04/01 07:02:38;;;;;;;13.43;10.95;;;;;;;;;;5072918;28;20040;-63
2022/04/01 07:05:05;;;;;;;15.05;11.95;;;;;;;;;;5072937;28;20368;-63
2022/04/01 07:07:31;;;;;;;10.10;9.10;;;;;;;;;;5071487;28;20135;-63
2022/04/01 07:09:56;;;;;;;8.27;7.55;;;;;;;;;;5072967;28;20111;-63
2022/04/01 07:12:23;;;;;;;6.80;6.20;;;;;;;;;;5072990;28;20437;-63
2022/04/01 07:14:49;;;;;;;8.70;7.90;;;;;;;;;;5071607;28;20029;-63
2022/04/01 07:17:15;;;;;;;4.00;3.75;;;;;;;;;;5072860;28;20036;-62
2022/04/01 07:19:40;;;;;;;4.07;3.78;;;;;;;;;;5072828;28;20035;-63
2022/04/01 07:22:06;;;;;;;5.90;5.40;;;;;;;;;;5072689;28;20040;-63
2022/04/01 07:24:32;;;;;;;9.95;8.95;;;;;;;;;;5071391;28;20032;-63
2022/04/01 07:26:58;;;;;;;14.38;10.57;;;;;;;;;;5072566;28;20037;-63
2022/04/01 07:29:23;;;;;;;14.15;12.20;;;;;;;;;;5072698;28;20070;-63
2022/04/01 07:34:38;;;;;;;12.55;11.25;;;;;;;;;;5072808;28;20062;-63
2022/04/01 07:37:05;;;;;;;18.23;14.85;;;;;;;;;;5072655;28;20489;-62
2022/04/01 07:39:31;;;;;;;19.30;15.70;;;;;;;;;;5072757;28;20043;-63
2022/04/01 07:41:56;;;;;;;11.20;9.15;;;;;;;;;;5072336;28;20039;-62
2022/04/01 07:44:22;;;;;;;8.80;8.05;;;;;;;;;;5072810;28;20040;-62
2022/04/01 07:46:48;;;;;;;16.38;13.90;;;;;;;;;;5072577;28;20041;-62
2022/04/01 07:49:13;;;;;;;82.53;51.97;;;;;;;;;;5072102;28;20058;-63
2022/04/01 07:51:39;;;;;;;64.72;50.72;;;;;;;;;;5072460;28;20557;-63
2022/04/01 07:54:05;;;;;;;18.25;13.40;;;;;;;;;;5072482;28;20128;-63
2022/04/01 07:56:31;;;;;;;25.00;20.90;;;;;;;;;;5054531;28;20127;-63
2022/04/01 07:58:58;;;;;;;21.70;17.17;;;;;;;;;;5072462;28;20044;-63
2022/04/01 08:01:23;;;;;;;11.40;9.40;;;;;;;;;;5073715;28;20043;-63
2022/04/01 08:03:49;;;;;;;21.83;15.95;;;;;;;;;;5076114;28;20036;-62
2022/04/01 08:06:14;;;;;;;10.45;8.70;;;;;;;;;;5075939;28;20095;-63
2022/04/01 08:08:40;;;;;;;17.70;10.23;;;;;;;;;;5075991;28;20123;-62
2022/04/01 08:11:06;;;;;;;11.43;10.20;;;;;;;;;;5075908;28;20056;-63
2022/04/01 08:13:32;;;;;;;15.05;12.35;;;;;;;;;;5075858;28;20038;-63
2022/04/01 08:15:58;;;;;;;14.30;12.27;;;;;;;;;;5075776;28;20021;-62
2022/04/01 08:18:23;;;;;;;18.27;16.73;;;;;;;;;;5075723;28;20040;-63
2022/04/01 08:20:48;;;;;;;23.95;20.17;;;;;;;;;;5057858;28;20462;-63
2022/04/01 08:23:14;;;;;;;17.52;12.80;;;;;;;;;;5075655;28;20028;-63
2022/04/01 08:25:40;;;;;;;11.65;10.27;;;;;;;;;;5075649;28;20051;-63
2022/04/01 08:28:06;;;;;;;35.65;24.67;;;;;;;;;;5075408;28;20126;-63
2022/04/01 08:30:34;;;;;;;6.78;6.20;;;;;;;;;;5057581;28;20116;-62
2022/04/01 08:33:00;;;;;;;12.77;10.20;;;;;;;;;;5075467;28;20129;-63
2022/04/01 08:35:26;;;;;;;7.57;6.95;;;;;;;;;;5075394;28;20025;-62
2022/04/01 08:37:54;;;;;;;7.35;6.85;;;;;;;;;;5075301;28;20037;-66
2022/04/01 08:40:19;;;;;;;14.18;12.98;;;;;;;;;;5075374;28;20397;-66
2022/04/01 08:42:46;;;;;;;5.75;5.32;;;;;;;;;;5074708;28;20048;-61
2022/04/01 08:45:12;;;;;;;6.18;5.78;;;;;;;;;;5040738;28;20041;-61
2022/04/01 08:47:38;;;;;;;6.10;5.70;;;;;;;;;;5075116;28;20399;-62
2022/04/01 08:50:04;;;;;;;6.20;5.65;;;;;;;;;;5075241;28;20028;-61
2022/04/01 08:52:30;;;;;;;6.38;5.88;;;;;;;;;;5075275;28;20040;-60
2022/04/01 08:55:01;;;;;;;7.32;6.63;;;;;;;;;;5057180;28;20039;-63
2022/04/01 08:57:33;;;;;;;44.17;31.55;;;;;;;;;;5075133;28;20040;-62
2022/04/01 09:00:00;;;;;;;169.70;61.42;;;;;;;;;;5075066;28;20119;-62
2022/04/01 09:02:26;;;;;;;21.23;15.13;;;;;;;;;;5074912;28;20548;-62
2022/04/01 09:05:02;;;;;;;20.92;16.17;;;;;;;;;;5074944;28;20067;-63
2022/04/01 09:07:28;;;;;;;18.33;14.93;;;;;;;;;;5057073;28;20508;-66
2022/04/01 09:09:59;;;;;;;12.48;9.20;;;;;;;;;;5056758;28;20067;-63
2022/04/01 09:12:25;;;;;;;12.48;11.27;;;;;;;;;;5074295;28;20081;-62
2022/04/01 09:25:50;;;;;;;16.80;15.10;;;;;;;;;;5091023;27;20560;-71
2022/04/01 09:28:29;;;;;;;32.63;18.63;;;;;;;;;;5090862;28;20024;-70
2022/04/01 09:30:59;;;;;;;22.45;20.08;;;;;;;;;;5090876;28;20119;-70
2022/04/01 09:33:28;;;;;;;10.85;9.00;;;;;;;;;;5090556;28;20032;-70
2022/04/01 09:35:54;;;;;;;18.30;13.80;;;;;;;;;;5089034;28;20114;-70
2022/04/01 09:38:22;;;;;;;5.72;5.32;;;;;;;;;;5089079;28;20432;-70
2022/04/01 09:40:50;;;;;;;7.53;6.93;;;;;;;;;;5090373;28;20115;-70
2022/04/01 09:43:22;;;;;;;5.22;4.93;;;;;;;;;;5090203;28;20027;-70
2022/04/01 09:45:47;;;;;;;5.53;5.05;;;;;;;;;;5090174;28;20028;-71
2022/04/01 09:48:13;;;;;;;5.90;5.50;;;;;;;;;;5089031;28;20107;-70
2022/04/01 09:50:43;;;;;;;8.82;8.00;;;;;;;;;;5090058;28;20037;-70
2022/04/01 09:53:14;;;;;;;21.55;16.65;;;;;;;;;;5089956;28;20040;-70
2022/04/01 09:55:47;;;;;;;44.92;34.40;;;;;;;;;;5089938;28;20020;-70
2022/04/01 09:58:13;;;;;;;13.80;12.55;;;;;;;;;;5072125;28;20039;-70
2022/04/01 10:00:41;;;;;;;10.20;9.30;;;;;;;;;;5089895;28;20044;-70
2022/04/01 10:03:11;;;;;;;8.32;7.63;;;;;;;;;;5089714;28;20024;-70
2022/04/01 10:05:37;;;;;;;7.20;6.70;;;;;;;;;;5089623;28;20036;-70
2022/04/01 10:08:04;;;;;;;6.55;6.05;;;;;;;;;;5089655;28;20020;-70
2022/04/01 10:10:30;;;;;;;6.75;6.25;;;;;;;;;;5089772;28;20024;-70
2022/04/01 10:13:00;;;;;;;5.78;5.28;;;;;;;;;;5089605;28;20069;-70
2022/04/01 10:15:28;;;;;;;;;;;;;;;;;;5088600;28;20028;-70
2022/04/01 10:17:55;;;;;;;13.55;9.68;;;;;;;;;;5089536;28;19908;-70
2022/04/01 10:20:21;;;;;;;77.28;50.85;;;;;;;;;;5089450;28;20021;-70
2022/04/01 10:22:47;;;;;;;53.53;32.38;;;;;;;;;;5088251;28;20031;-70
2022/04/01 10:25:18;;;;;;;15.40;13.73;;;;;;;;;;5083909;28;20048;-70
2022/04/01 10:27:50;;;;;;;36.80;27.10;;;;;;;;;;5075743;28;20032;-70
2022/04/01 10:30:17;;;;;;;15.98;14.20;;;;;;;;;;5074531;28;20028;-70
2022/04/01 10:32:47;;;;;;;5.75;5.40;;;;;;;;;;5075675;28;20017;-70
2022/04/01 10:35:24;;;;;;;12.90;11.77;;;;;;;;;;5075804;28;20479;-66
2022/04/01 10:38:05;;;;;;;15.98;14.35;;;;;;;;;;5075856;28;20029;-70
2022/04/01 10:40:32;;;;;;;14.18;12.90;;;;;;;;;;5075598;28;20423;-69
2022/04/01 10:43:08;;;;;;;17.73;15.85;;;;;;;;;;5074222;28;20024;-69
2022/04/01 10:45:34;;;;;;;11.30;10.43;;;;;;;;;;5075524;28;20111;-69
2022/04/01 10:53:33;;;;;;;6.97;6.53;;;;;;;;;;5074181;28;20110;-70
2022/04/01 10:56:17;;;;;;;13.23;11.93;;;;;;;;;;5075328;28;20439;-69
2022/04/01 10:59:01;;;;;;;21.42;16.77;;;;;;;;;;5075210;28;20025;-69
2022/04/01 11:01:27;;;;;;;31.30;28.13;;;;;;;;;;5075176;28;20059;-69
2022/04/01 11:03:52;;;;;;;21.15;18.95;;;;;;;;;;5075123;28;20410;-69
2022/04/01 11:06:22;;;;;;;19.58;17.60;;;;;;;;;;5075125;28;20086;-69
2022/04/01 11:08:51;;;;;;;12.75;11.55;;;;;;;;;;5073904;28;20047;-69
2022/04/01 11:11:17;;;;;;;12.70;11.50;;;;;;;;;;5075152;28;20410;-69
2022/04/01 11:13:42;;;;;;;9.32;8.35;;;;;;;;;;5074915;28;20016;-69
2022/04/01 11:16:16;;;;;;;18.42;14.30;;;;;;;;;;5074675;28;20033;-69
2022/04/01 11:19:00;;;;;;;15.45;13.32;;;;;;;;;;5074614;28;20506;-69
2022/04/01 11:21:32;;;;;;;8.60;7.78;;;;;;;;;;5074799;28;20037;-69
2022/04/01 11:24:19;;;;;;;14.07;12.68;;;;;;;;;;5074319;28;20085;-69
2022/04/01 11:26:45;;;;;;;11.75;10.73;;;;;;;;;;5073623;28;20498;-69
2022/04/01 11:29:21;;;;;;;25.20;20.65;;;;;;;;;;5074620;28;20024;-69
2022/04/01 11:31:46;;;;;;;13.90;12.68;;;;;;;;;;5074536;28;20123;-69
2022/04/01 11:34:12;;;;;;;31.92;27.23;;;;;;;;;;5074381;28;20099;-69
2022/04/01 11:36:37;;;;;;;22.35;18.08;;;;;;;;;;5073715;28;20028;-69
2022/04/01 11:39:04;;;;;;;35.30;23.92;;;;;;;;;;5074092;28;20029;-68
2022/04/01 11:41:30;;;;;;;38.83;34.78;;;;;;;;;;5074267;28;20488;-69
2022/04/01 11:43:55;;;;;;;37.03;33.00;;;;;;;;;;5074397;28;20217;-69
2022/04/01 11:46:22;;;;;;;51.20;37.78;;;;;;;;;;5074274;28;20480;-69
2022/04/01 11:48:48;;;;;;;32.60;29.17;;;;;;;;;;5074133;28;20023;-68
2022/04/01 11:51:19;;;;;;;23.85;21.40;;;;;;;;;;5074228;28;20479;-68
2022/04/01 11:53:47;;;;;;;11.38;10.38;;;;;;;;;;5074047;28;20056;-68
2022/04/01 11:56:13;;;;;;;8.50;7.80;;;;;;;;;;5072821;28;20044;-69
2022/04/01 11:58:48;;;;;;;35.00;29.65;;;;;;;;;;5073927;28;20039;-69
2022/04/01 12:01:21;;;;;;;22.98;20.58;;;;;;;;;;5073886;28;20055;-68
2022/04/01 12:03:46;;;;;;;10.90;10.10;;;;;;;;;;5072728;28;20040;-69
2022/04/01 12:09:00;;;;;;;7.47;6.88;;;;;;;;;;5073969;28;20278;-69
2022/04/01 12:11:26;;;;;;;8.57;7.97;;;;;;;;;;5073823;28;20036;-68
2022/04/01 12:13:55;;;;;;;13.23;12.20;;;;;;;;;;5072240;28;20070;-68
2022/04/01 12:16:25;;;;;;;9.77;9.00;;;;;;;;;;5073429;28;20471;-68
2022/04/01 12:18:50;;;;;;;4.82;4.53;;;;;;;;;;5073794;28;20028;-68
2022/04/01 12:21:17;;;;;;;15.93;14.30;;;;;;;;;;5073665;28;20467;-68
2022/04/01 12:23:45;;;;;;;37.28;29.98;;;;;;;;;;5073212;28;20036;-68
2022/04/01 12:26:11;;;;;;;6.45;5.95;;;;;;;;;;5073713;28;20106;-69
2022/04/01 12:28:38;;;;;;;5.57;5.28;;;;;;;;;;5072203;28;20028;-68
2022/04/01 12:31:04;;;;;;;11.70;10.63;;;;;;;;;;5055629;28;20479;-68
2022/04/01 12:33:31;;;;;;;8.77;8.07;;;;;;;;;;5073381;28;20031;-68
2022/04/01 12:35:56;;;;;;;11.07;10.07;;;;;;;;;;5073460;28;20141;-68
2022/04/01 12:38:22;;;;;;;8.20;7.60;;;;;;;;;;5072117;28;20016;-69
2022/04/01 12:40:49;;;;;;;5.95;5.45;;;;;;;;;;5070630;28;20023;-69
2022/04/01 12:43:32;;;;;;;7.80;7.13;;;;;;;;;;5073321;28;20021;-68
2022/04/01 12:45:59;;;;;;;20.50;18.52;;;;;;;;;;5073124;28;20033;-68
2022/04/01 12:48:25;;;;;;;79.18;70.88;;;;;;;;;;5073055;28;20020;-68
2022/04/01 12:50:50;;;;;;;1061.53;695.58;;;;;;;;;;5073227;28;20032;-69
2022/04/01 12:53:16;;;;;;;79.03;65.22;;;;;;;;;;5072953;28;20103;-68
2022/04/01 12:55:42;;;;;;;114.45;63.78;;;;;;;;;;5073186;28;20097;-68
2022/04/01 12:58:12;;;;;;;13.88;12.32;;;;;;;;;;5073210;28;20466;-70
2022/04/01 13:00:38;;;;;;;46.72;27.50;;;;;;;;;;5071829;28;20029;-69
2022/04/01 13:03:04;;;;;;;5.57;5.18;;;;;;;;;;5073092;28;20052;-69
2022/04/01 13:05:29;;;;;;;157.07;75.25;;;;;;;;;;5072982;28;20029;-69
2022/04/01 13:07:55;;;;;;;63.40;28.77;;;;;;;;;;5071539;28;20024;-69
2022/04/01 13:10:23;;;;;;;7.32;6.57;;;;;;;;;;5073108;28;20106;-69
2022/04/01 13:12:51;;;;;;;5.43;5.13;;;;;;;;;;5071819;28;20027;-69
2022/04/01 13:15:17;;;;;;;53.42;28.80;;;;;;;;;;5072634;28;20578;-69
2022/04/01 13:17:44;;;;;;;45.58;25.00;;;;;;;;;;5073114;28;20016;-69
2022/04/01 13:20:14;;;;;;;11.88;10.27;;;;;;;;;;5072933;28;20090;-69
2022/04/01 13:22:40;;;;;;;30.80;20.05;;;;;;;;;;5072885;28;20522;-69
2022/04/01 13:25:06;;;;;;;34.47;21.15;;;;;;;;;;5072622;28;20049;-69
2022/04/01 13:27:32;;;;;;;48.20;26.63;;;;;;;;;;5071592;28;20024;-69
2022/04/01 13:29:58;;;;;;;68.45;38.42;;;;;;;;;;5072735;28;20024;-69
2022/04/01 13:32:24;;;;;;;55.25;31.27;;;;;;;;;;5072693;28;20042;-69
2022/04/01 13:34:50;;;;;;;15.10;12.80;;;;;;;;;;5071408;28;20025;-70
2022/04/01 13:37:16;;;;;;;57.17;30.55;;;;;;;;;;5071456;28;20021;-70
2022/04/01 13:39:42;;;;;;;46.55;27.30;;;;;;;;;;5072436;28;20479;-70
2022/04/01 13:42:08;;;;;;;19.23;13.05;;;;;;;;;;5072568;28;20067;-70
2022/04/01 13:44:33;;;;;;;75.07;37.50;;;;;;;;;;5072682;28;20063;-71
2022/04/01 13:46:59;;;;;;;34.63;20.08;;;;;;;;;;5054859;28;20547;-70
2022/04/01 13:49:24;;;;;;;8.52;7.72;;;;;;;;;;5072600;28;20017;-70
2022/04/01 13:51:50;;;;;;;8.30;7.53;;;;;;;;;;5072737;28;20066;-70
2022/04/01 13:54:16;;;;;;;9.07;8.27;;;;;;;;;;5071078;28;20464;-70
2022/04/01 13:56:42;;;;;;;11.85;9.60;;;;;;;;;;5072378;28;20032;-70
2022/04/01 13:59:07;;;;;;;21.42;15.57;;;;;;;;;;5072543;28;20028;-70
2022/04/01 14:01:33;;;;;;;52.45;34.00;;;;;;;;;;5075069;28;20052;-70
2022/04/01 14:03:58;;;;;;;42.63;27.60;;;;;;;;;;5075908;28;20024;-71
2022/04/01 14:06:25;;;;;;;7.63;7.03;;;;;;;;;;5076064;28;20372;-71
2022/04/01 14:08:54;;;;;;;10.18;9.20;;;;;;;;;;5074770;28;20543;-71
2022/04/01 14:11:20;;;;;;;13.15;11.75;;;;;;;;;;5076013;28;20024;-71
2022/04/01 14:13:45;;;;;;;7.18;6.57;;;;;;;;;;5075832;28;20025;-71
2022/04/01 14:16:11;;;;;;;127.32;92.88;;;;;;;;;;5075786;28;20024;-71
2022/04/01 14:18:36;;;;;;;63.35;45.15;;;;;;;;;;5075889;28;20052;-71
2022/04/01 14:21:03;;;;;;;18.17;16.27;;;;;;;;;;5075912;28;20060;-71
2022/04/01 14:23:31;;;;;;;22.70;20.30;;;;;;;;;;5075654;28;20020;-70
2022/04/01 14:25:58;;;;;;;7.93;7.13;;;;;;;;;;5075770;28;20556;-71
2022/04/01 14:28:24;;;;;;;7.68;6.90;;;;;;;;;;5075888;28;20063;-70
2022/04/01 14:30:50;;;;;;;6.57;6.07;;;;;;;;;;5075713;28;20072;-70
2022/04/01 14:33:15;;;;;;;26.70;22.38;;;;;;;;;;5075354;28;20024;-70
2022/04/01 14:35:41;;;;;;;7.60;6.97;;;;;;;;;;5075582;28;20112;-70
2022/04/01 14:38:08;;;;;;;7.97;7.28;;;;;;;;;;5075646;28;20100;-70
2022/04/01 14:40:34;;;;;;;72.72;50.17;;;;;;;;;;5074245;28;20040;-71
2022/04/01 14:43:04;;;;;;;34.22;24.17;;;;;;;;;;5075521;28;20016;-71
2022/04/01 14:45:29;;;;;;;22.37;17.47;;;;;;;;;;5075516;28;20021;-71
2022/04/01 14:47:55;;;;;;;63.35;46.22;;;;;;;;;;5075443;28;20019;-71
2022/04/01 14:50:20;;;;;;;24.58;13.85;;;;;;;;;;5075335;28;20109;-71
2022/04/01 14:52:46;;;;;;;16.58;11.88;;;;;;;;;;5075253;28;20052;-71
2022/04/01 14:55:11;;;;;;;25.42;14.70;;;;;;;;;;5075303;28;20470;-71
2022/04/01 14:57:38;;;;;;;23.08;17.85;;;;;;;;;;5074196;28;20032;-71
2022/04/01 15:00:04;;;;;;;46.47;35.88;;;;;;;;;;5075096;28;20067;-71
2022/04/01 15:02:33;;;;;;;24.73;22.23;;;;;;;;;;5075287;28;20467;-71
2022/04/01 15:04:59;;;;;;;10.90;9.88;;;;;;;;;;5075191;28;20033;-71
2022/04/01 15:07:25;;;;;;;34.20;29.45;;;;;;;;;;5075015;28;20077;-71
2022/04/01 15:09:50;;;;;;;11.65;10.65;;;;;;;;;;5074824;28;20032;-71